createdAt,value
2019-03-22T00:02:50.266Z,72.64
2019-03-22T00:07:54.293Z,72.37
2019-03-22T00:12:58.555Z,73.92
2019-03-22T00:18:02.455Z,73.39
2019-03-22T00:23:06.397Z,74.12
2019-03-22T00:28:10.316Z,73.89
2019-03-22T00:33:14.200Z,72.30
2019-03-22T00:38:18.358Z,73.85
2019-03-22T00:43:22.310Z,73.71
2019-03-22T00:48:26.233Z,73.69
2019-03-22T00:53:30.157Z,72.87
2019-03-22T00:58:34.082Z,73.38
2019-03-22T01:03:38.014Z,73.68
2019-03-22T01:08:41.880Z,73.59
2019-03-22T01:13:45.868Z,74.24
2019-03-22T01:18:49.787Z,74.69
2019-03-22T01:23:53.948Z,73.96
2019-03-22T01:28:58.263Z,73.86
2019-03-22T01:34:02.569Z,75.10
2019-03-22T01:39:07.402Z,74.68
2019-03-22T01:44:11.609Z,74.26
2019-03-22T01:49:15.389Z,74.36
2019-03-22T01:54:19.541Z,74.40
2019-03-22T01:59:23.467Z,74.03
2019-03-22T02:04:27.400Z,74.39
2019-03-22T02:09:31.314Z,74.77
2019-03-22T02:14:35.209Z,75.04
2019-03-22T02:19:39.075Z,74.61
2019-03-22T02:24:43.003Z,74.17
2019-03-22T02:29:46.864Z,73.83
2019-03-22T02:34:51.011Z,73.74
2019-03-22T02:39:55.043Z,73.86
2019-03-22T02:44:58.907Z,73.68
2019-03-22T02:50:17.192Z,73.85
2019-03-22T02:55:09.661Z,74.13
2019-03-22T03:00:14.975Z,75.09
2019-03-22T03:05:18.829Z,74.59
2019-03-22T03:10:22.852Z,74.42
2019-03-22T03:15:26.695Z,74.35
2019-03-22T03:20:30.705Z,73.79
2019-03-22T03:25:34.488Z,73.79
2019-03-22T03:30:38.423Z,73.88
2019-03-22T03:35:42.240Z,73.31
2019-03-22T03:40:46.105Z,73.32
2019-03-22T03:45:50.398Z,74.80
2019-03-22T03:50:54.295Z,74.46
2019-03-22T03:55:58.141Z,74.98
2019-03-22T04:01:01.865Z,73.21
2019-03-22T04:06:05.775Z,72.46
2019-03-22T04:11:09.877Z,72.81
2019-03-22T04:16:13.907Z,73.22
2019-03-22T04:21:17.801Z,72.57
2019-03-22T04:26:21.869Z,72.44
2019-03-22T04:31:25.963Z,72.55
2019-03-22T04:36:29.993Z,72.67
2019-03-22T04:41:33.723Z,72.63
2019-03-22T04:46:40.792Z,72.70
2019-03-22T04:51:46.001Z,71.82
2019-03-22T04:56:51.977Z,71.13
2019-03-22T05:01:58.959Z,70.61
2019-03-22T05:07:03.315Z,70.62
2019-03-22T05:12:14.139Z,69.93
2019-03-22T05:17:18.342Z,70.64
2019-03-22T05:22:26.725Z,71.07
2019-03-22T05:27:33.472Z,70.72
2019-03-22T05:32:37.819Z,70.97
2019-03-22T05:37:42.031Z,70.83
2019-03-22T05:42:45.787Z,71.42
2019-03-22T05:47:49.794Z,71.73
2019-03-22T05:52:53.718Z,71.72
2019-03-22T05:57:58.109Z,71.83
2019-03-22T06:03:01.976Z,72.06
2019-03-22T06:08:06.119Z,71.72
2019-03-22T06:13:09.981Z,71.61
2019-03-22T06:18:14.095Z,71.18
2019-03-22T06:23:17.996Z,70.68
2019-03-22T06:28:22.133Z,70.86
2019-03-22T06:33:25.931Z,69.64
2019-03-22T06:38:29.713Z,68.81
2019-03-22T06:43:33.600Z,68.97
2019-03-22T06:48:37.392Z,68.61
2019-03-22T06:53:41.132Z,67.52
2019-03-22T06:58:44.897Z,66.98
2019-03-22T07:03:48.662Z,67.73
2019-03-22T07:08:52.524Z,65.80
2019-03-22T07:13:56.667Z,66.49
2019-03-22T07:19:00.593Z,67.00
2019-03-22T07:24:05.018Z,66.17
2019-03-22T07:29:09.048Z,65.09
2019-03-22T07:34:12.921Z,64.53
2019-03-22T07:39:16.659Z,63.85
2019-03-22T07:44:20.432Z,63.47
2019-03-22T07:49:24.442Z,62.91
2019-03-22T07:54:28.268Z,64.44
2019-03-22T07:59:32.230Z,63.55
2019-03-22T08:04:36.000Z,64.28
2019-03-22T08:09:40.053Z,64.32
2019-03-22T08:14:44.323Z,65.09
2019-03-22T08:19:48.227Z,65.40
2019-03-22T08:24:52.138Z,66.48
2019-03-22T08:29:56.202Z,66.77
2019-03-22T08:34:59.976Z,67.41
2019-03-22T08:40:04.230Z,67.38
2019-03-22T08:45:11.263Z,66.10
2019-03-22T08:50:14.720Z,65.43
2019-03-22T08:55:18.675Z,66.04
2019-03-22T09:00:22.644Z,66.25
2019-03-22T09:05:26.528Z,66.49
2019-03-22T09:10:30.389Z,65.81
2019-03-22T09:15:40.966Z,66.04
2019-03-22T09:20:40.237Z,67.36
2019-03-22T09:25:44.097Z,67.28
2019-03-22T09:30:48.027Z,68.25
2019-03-22T09:35:51.954Z,68.36
2019-03-22T09:40:56.053Z,67.83
2019-03-22T09:46:00.565Z,67.75
2019-03-22T09:51:04.324Z,65.82
2019-03-22T09:56:08.193Z,66.35
2019-03-22T10:01:23.227Z,66.16
2019-03-22T10:06:17.686Z,67.42
2019-03-22T10:11:21.589Z,67.26
2019-03-22T10:16:25.529Z,67.40
2019-03-22T10:21:29.589Z,68.07
2019-03-22T10:26:33.546Z,67.69
2019-03-22T10:31:37.972Z,67.80
2019-03-22T10:36:42.163Z,68.43
2019-03-22T10:41:46.025Z,68.23
2019-03-22T10:46:49.858Z,66.54
2019-03-22T10:51:57.293Z,66.88
2019-03-22T10:57:00.314Z,66.26
2019-03-22T11:02:07.542Z,64.78
2019-03-22T11:07:10.200Z,64.15
2019-03-22T11:12:14.099Z,64.41
2019-03-22T11:17:17.869Z,64.59
2019-03-22T11:22:21.642Z,64.83
2019-03-22T11:27:25.580Z,64.64
2019-03-22T11:32:30.161Z,65.12
2019-03-22T11:37:34.015Z,64.76
2019-03-22T11:42:38.314Z,66.13
2019-03-22T11:47:42.350Z,66.59
2019-03-22T11:52:46.159Z,66.38
2019-03-22T11:57:49.921Z,66.65
2019-03-22T12:02:54.062Z,66.55
2019-03-22T12:07:57.882Z,65.81
2019-03-22T12:13:01.641Z,66.49
2019-03-22T12:18:06.225Z,66.68
2019-03-22T12:23:10.252Z,66.27
2019-03-22T12:28:14.166Z,66.12
2019-03-22T12:33:18.108Z,66.59
2019-03-22T12:38:22.144Z,66.68
2019-03-22T12:43:26.067Z,66.80
2019-03-22T12:48:29.868Z,66.89
2019-03-22T12:53:33.826Z,66.67
2019-03-22T12:58:37.655Z,67.31
2019-03-22T13:03:41.777Z,67.77
2019-03-22T13:08:45.629Z,68.05
2019-03-22T13:13:49.385Z,68.13
2019-03-22T13:18:53.212Z,67.89
2019-03-22T13:23:57.076Z,68.27
2019-03-22T13:29:00.813Z,68.72
2019-03-22T13:34:04.559Z,68.84
2019-03-22T13:39:08.894Z,68.65
2019-03-22T13:44:12.697Z,69.27
2019-03-22T13:49:16.705Z,69.61
2019-03-22T13:54:20.638Z,69.12
2019-03-22T13:59:24.538Z,69.07
2019-03-22T14:04:28.417Z,70.03
2019-03-22T14:09:32.712Z,70.19
2019-03-22T14:14:36.981Z,70.45
2019-03-22T14:19:40.891Z,70.55
2019-03-22T14:24:44.815Z,70.91
2019-03-22T14:29:48.844Z,69.95
2019-03-22T14:34:52.780Z,71.86
2019-03-22T14:39:56.694Z,72.56
2019-03-22T14:45:00.503Z,72.65
2019-03-22T14:50:04.798Z,73.12
2019-03-22T14:55:08.886Z,72.55
2019-03-22T15:00:13.294Z,73.30
2019-03-22T15:05:17.188Z,73.35
2019-03-22T15:10:20.952Z,73.33
2019-03-22T15:16:02.519Z,72.91
2019-03-22T15:21:40.386Z,72.71
2019-03-22T15:27:10.350Z,72.96
2019-03-22T15:32:28.241Z,72.67
2019-03-22T15:37:54.611Z,72.23
2019-03-22T15:42:58.418Z,72.33
2019-03-22T15:48:02.316Z,72.61
2019-03-22T15:53:06.231Z,73.05
2019-03-22T15:58:10.158Z,72.66
2019-03-22T16:03:13.929Z,72.40
2019-03-22T16:08:17.813Z,72.84
2019-03-22T16:13:21.858Z,72.92
2019-03-22T16:18:25.976Z,72.38
2019-03-22T16:23:29.900Z,71.85
2019-03-22T16:28:35.027Z,71.51
2019-03-22T16:33:38.893Z,71.97
2019-03-22T16:38:42.822Z,71.68
2019-03-22T16:43:46.871Z,71.48
2019-03-22T16:48:50.775Z,72.04
2019-03-22T16:53:54.781Z,72.98
2019-03-22T16:58:58.608Z,73.17
2019-03-22T17:04:04.636Z,73.17
2019-03-22T17:09:08.491Z,73.79
2019-03-22T17:14:12.453Z,74.79
2019-03-22T17:19:16.472Z,75.46
2019-03-22T17:24:20.419Z,75.65
2019-03-22T17:29:24.170Z,75.22
2019-03-22T17:34:28.264Z,74.84
2019-03-22T17:39:32.303Z,74.42
2019-03-22T17:44:36.173Z,74.47
2019-03-22T17:49:47.760Z,74.92
2019-03-22T17:54:45.715Z,75.06
2019-03-22T17:59:49.641Z,75.58
2019-03-22T18:04:53.579Z,75.83
2019-03-22T18:09:57.444Z,75.99
2019-03-22T18:15:01.892Z,76.23
2019-03-22T18:20:07.764Z,77.08
2019-03-22T18:25:13.169Z,77.34
2019-03-22T18:30:17.042Z,77.04
2019-03-22T18:35:20.904Z,77.57
2019-03-22T18:40:24.793Z,77.55
2019-03-22T18:45:28.770Z,77.99
2019-03-22T18:50:32.551Z,78.70
2019-03-22T18:55:36.713Z,79.15
2019-03-22T19:00:40.661Z,79.40
2019-03-22T19:05:47.955Z,79.91
2019-03-22T19:10:51.898Z,79.57
2019-03-22T19:15:55.831Z,78.38
2019-03-22T19:20:59.679Z,76.90
2019-03-22T19:26:03.576Z,77.16
2019-03-22T19:31:07.614Z,78.37
2019-03-22T19:36:11.522Z,79.09
2019-03-22T19:41:15.260Z,78.66
2019-03-22T19:46:19.099Z,80.66
2019-03-22T19:51:22.936Z,80.21
2019-03-22T19:56:26.825Z,79.22
2019-03-22T20:01:30.759Z,78.41
2019-03-22T20:06:34.689Z,78.57
2019-03-22T20:11:38.600Z,78.64
2019-03-22T20:16:42.644Z,79.18
2019-03-22T20:21:46.581Z,79.19
2019-03-22T20:26:50.552Z,79.61
2019-03-22T20:31:54.441Z,80.07
2019-03-22T20:36:58.295Z,79.67
2019-03-22T20:42:02.377Z,79.66
2019-03-22T20:47:06.247Z,80.68
2019-03-22T20:52:10.161Z,80.51
2019-03-22T20:57:14.388Z,80.76
2019-03-22T21:02:18.252Z,80.15
2019-03-22T21:07:22.239Z,79.74
2019-03-22T21:12:26.362Z,80.56
2019-03-22T21:17:30.289Z,80.85
2019-03-22T21:22:34.060Z,80.62
2019-03-22T21:27:37.878Z,80.58
2019-03-22T21:32:45.557Z,81.32
2019-03-22T21:37:47.323Z,81.57
2019-03-22T21:42:51.137Z,82.29
2019-03-22T21:47:55.082Z,82.22
2019-03-22T21:52:58.904Z,82.05
2019-03-22T21:58:03.654Z,81.49
2019-03-22T22:03:07.476Z,81.87
2019-03-22T22:08:11.616Z,82.20
2019-03-22T22:13:15.641Z,82.20
2019-03-22T22:18:19.601Z,82.43
2019-03-22T22:23:23.416Z,82.91
2019-03-22T22:28:27.409Z,82.21
2019-03-22T22:33:31.349Z,82.29
2019-03-22T22:38:35.375Z,82.83
2019-03-22T22:43:39.250Z,82.94
2019-03-22T22:48:43.075Z,84.22
2019-03-22T22:53:47.113Z,83.77
2019-03-22T22:58:50.987Z,84.88
2019-03-22T23:03:54.913Z,84.34
2019-03-22T23:08:58.831Z,85.01
2019-03-22T23:14:02.575Z,84.18
2019-03-22T23:19:06.604Z,86.84
2019-03-22T23:24:10.648Z,86.36
2019-03-22T23:29:14.642Z,87.38
2019-03-22T23:34:18.605Z,87.79
2019-03-22T23:39:22.602Z,85.37
2019-03-22T23:44:26.527Z,85.83
2019-03-22T23:49:30.419Z,84.96
2019-03-22T23:54:34.584Z,84.67
2019-03-22T23:59:38.478Z,83.74
